sensor_id;sensor_type;location;lat;lon;timestamp;pressure;altitude;pressure_sealevel;temperature;humidity
42771;BME280;28426;42.872;25.314;2024-02-14T00:01:41;96574.38;;;2.71;100.00
42771;BME280;28426;42.872;25.314;2024-02-14T00:04:12;96572.19;;;2.67;100.00
42771;BME280;28426;42.872;25.314;2024-02-14T00:06:43;96578.88;;;2.61;98.88
42771;BME280;28426;42.872;25.314;2024-02-14T00:09:16;96578.38;;;2.47;96.67
42771;BME280;28426;42.872;25.314;2024-02-14T00:11:47;96578.22;;;2.31;96.29
42771;BME280;28426;42.872;25.314;2024-02-14T00:14:18;96586.28;;;2.19;96.99
42771;BME280;28426;42.872;25.314;2024-02-14T00:16:49;96589.66;;;2.12;98.10
42771;BME280;28426;42.872;25.314;2024-02-14T00:19:19;96595.75;;;2.12;100.00
42771;BME280;28426;42.872;25.314;2024-02-14T00:21:50;96598.63;;;2.19;100.00
42771;BME280;28426;42.872;25.314;2024-02-14T00:24:24;96590.16;;;2.25;100.00
42771;BME280;28426;42.872;25.314;2024-02-14T00:26:56;96594.69;;;2.33;100.00
42771;BME280;28426;42.872;25.314;2024-02-14T00:29:28;96602.81;;;2.40;100.00
42771;BME280;28426;42.872;25.314;2024-02-14T00:32:01;96600.56;;;2.45;100.00
42771;BME280;28426;42.872;25.314;2024-02-14T00:34:45;96608.06;;;2.50;100.00
42771;BME280;28426;42.872;25.314;2024-02-14T00:37:19;96599.88;;;2.53;100.00
42771;BME280;28426;42.872;25.314;2024-02-14T00:39:52;96610.22;;;2.54;100.00
42771;BME280;28426;42.872;25.314;2024-02-14T00:42:24;96601.38;;;2.55;100.00
42771;BME280;28426;42.872;25.314;2024-02-14T00:44:55;96605.81;;;2.55;100.00
42771;BME280;28426;42.872;25.314;2024-02-14T00:47:26;96604.16;;;2.54;100.00
42771;BME280;28426;42.872;25.314;2024-02-14T00:49:57;96604.56;;;2.49;100.00
42771;BME280;28426;42.872;25.314;2024-02-14T00:52:31;96609.91;;;2.39;98.33
42771;BME280;28426;42.872;25.314;2024-02-14T00:55:05;96609.41;;;2.26;97.93
42771;BME280;28426;42.872;25.314;2024-02-14T00:57:35;96608.31;;;2.18;97.87
42771;BME280;28426;42.872;25.314;2024-02-14T01:00:07;96610.16;;;2.08;97.62
42771;BME280;28426;42.872;25.314;2024-02-14T01:02:39;96620.97;;;2.05;99.65
42771;BME280;28426;42.872;25.314;2024-02-14T01:05:10;96614.44;;;2.09;100.00
42771;BME280;28426;42.872;25.314;2024-02-14T01:07:41;96618.16;;;2.16;100.00
42771;BME280;28426;42.872;25.314;2024-02-14T01:10:16;96620.22;;;2.22;100.00
42771;BME280;28426;42.872;25.314;2024-02-14T01:12:47;96621.47;;;2.28;100.00
42771;BME280;28426;42.872;25.314;2024-02-14T01:15:18;96617.72;;;2.31;100.00
42771;BME280;28426;42.872;25.314;2024-02-14T01:17:49;96615.59;;;2.34;100.00
42771;BME280;28426;42.872;25.314;2024-02-14T01:20:20;96620.03;;;2.34;100.00
42771;BME280;28426;42.872;25.314;2024-02-14T01:22:51;96619.22;;;2.33;100.00
42771;BME280;28426;42.872;25.314;2024-02-14T01:25:33;96625.28;;;2.34;100.00
42771;BME280;28426;42.872;25.314;2024-02-14T01:28:04;96620.19;;;2.32;100.00
42771;BME280;28426;42.872;25.314;2024-02-14T01:30:36;96618.66;;;2.30;100.00
42771;BME280;28426;42.872;25.314;2024-02-14T01:33:06;96617.84;;;2.29;100.00
42771;BME280;28426;42.872;25.314;2024-02-14T01:35:37;96617.97;;;2.28;100.00
42771;BME280;28426;42.872;25.314;2024-02-14T01:38:10;96618.13;;;2.26;100.00
42771;BME280;28426;42.872;25.314;2024-02-14T01:40:45;96620.09;;;2.24;100.00
42771;BME280;28426;42.872;25.314;2024-02-14T01:43:15;96623.38;;;2.26;100.00
42771;BME280;28426;42.872;25.314;2024-02-14T01:45:46;96623.38;;;2.26;100.00
42771;BME280;28426;42.872;25.314;2024-02-14T01:48:25;96618.13;;;2.26;100.00
42771;BME280;28426;42.872;25.314;2024-02-14T01:50:56;96630.31;;;2.27;100.00
42771;BME280;28426;42.872;25.314;2024-02-14T01:53:28;96629.63;;;2.25;100.00
42771;BME280;28426;42.872;25.314;2024-02-14T01:56:03;96633.38;;;2.22;100.00
42771;BME280;28426;42.872;25.314;2024-02-14T01:58:35;96635.31;;;2.20;100.00
42771;BME280;28426;42.872;25.314;2024-02-14T02:01:06;96635.31;;;2.20;100.00
42771;BME280;28426;42.872;25.314;2024-02-14T02:03:37;96632.69;;;2.20;100.00
42771;BME280;28426;42.872;25.314;2024-02-14T02:06:08;96642.41;;;2.20;100.00
42771;BME280;28426;42.872;25.314;2024-02-14T02:08:39;96631.88;;;2.20;100.00
42771;BME280;28426;42.872;25.314;2024-02-14T02:11:12;96630.91;;;2.21;100.00
42771;BME280;28426;42.872;25.314;2024-02-14T02:14:03;96635.50;;;2.19;100.00
42771;BME280;28426;42.872;25.314;2024-02-14T02:16:54;96636.31;;;2.19;100.00
42771;BME280;28426;42.872;25.314;2024-02-14T02:19:44;96646.16;;;2.17;100.00
42771;BME280;28426;42.872;25.314;2024-02-14T02:22:34;96644.47;;;2.16;100.00
42771;BME280;28426;42.872;25.314;2024-02-14T02:25:28;96650.06;;;2.13;100.00
42771;BME280;28426;42.872;25.314;2024-02-14T02:28:14;96650.06;;;2.13;100.00
42771;BME280;28426;42.872;25.314;2024-02-14T02:30:49;96654.34;;;2.14;100.00
42771;BME280;28426;42.872;25.314;2024-02-14T02:33:21;96657.63;;;2.16;100.00
42771;BME280;28426;42.872;25.314;2024-02-14T02:35:52;96666.25;;;2.18;100.00
42771;BME280;28426;42.872;25.314;2024-02-14T02:38:42;96670.81;;;2.16;100.00
42771;BME280;28426;42.872;25.314;2024-02-14T02:41:35;96674.72;;;2.12;100.00
42771;BME280;28426;42.872;25.314;2024-02-14T02:44:25;96671.38;;;2.10;100.00
42771;BME280;28426;42.872;25.314;2024-02-14T02:47:13;96674.47;;;2.05;100.00
42771;BME280;28426;42.872;25.314;2024-02-14T02:50:05;96679.16;;;2.02;100.00
42771;BME280;28426;42.872;25.314;2024-02-14T02:52:56;96681.38;;;1.96;100.00
42771;BME280;28426;42.872;25.314;2024-02-14T02:55:46;96684.28;;;1.93;100.00
42771;BME280;28426;42.872;25.314;2024-02-14T02:58:21;96681.81;;;1.92;100.00
42771;BME280;28426;42.872;25.314;2024-02-14T03:00:52;96688.88;;;1.91;100.00
42771;BME280;28426;42.872;25.314;2024-02-14T03:03:45;96692.47;;;1.90;100.00
42771;BME280;28426;42.872;25.314;2024-02-14T03:06:36;96698.41;;;1.92;100.00
42771;BME280;28426;42.872;25.314;2024-02-14T03:09:22;96700.25;;;1.92;100.00
42771;BME280;28426;42.872;25.314;2024-02-14T03:12:15;96696.50;;;1.94;100.00
42771;BME280;28426;42.872;25.314;2024-02-14T03:15:09;96693.88;;;1.94;100.00
42771;BME280;28426;42.872;25.314;2024-02-14T03:17:45;96701.75;;;1.94;100.00
42771;BME280;28426;42.872;25.314;2024-02-14T03:20:16;96694.97;;;1.92;100.00
42771;BME280;28426;42.872;25.314;2024-02-14T03:22:47;96700.38;;;1.90;100.00
42771;BME280;28426;42.872;25.314;2024-02-14T03:25:19;96701.19;;;1.91;100.00
42771;BME280;28426;42.872;25.314;2024-02-14T03:28:02;96706.31;;;1.92;100.00
42771;BME280;28426;42.872;25.314;2024-02-14T03:30:39;96715.59;;;1.96;100.00
42771;BME280;28426;42.872;25.314;2024-02-14T03:33:09;96708.41;;;1.99;100.00
42771;BME280;28426;42.872;25.314;2024-02-14T03:35:40;96710.19;;;1.98;100.00
42771;BME280;28426;42.872;25.314;2024-02-14T03:38:11;96716.44;;;1.97;100.00
42771;BME280;28426;42.872;25.314;2024-02-14T03:40:42;96719.19;;;1.95;100.00
42771;BME280;28426;42.872;25.314;2024-02-14T03:43:13;96727.09;;;1.95;100.00
42771;BME280;28426;42.872;25.314;2024-02-14T03:45:46;96723.47;;;1.96;100.00
42771;BME280;28426;42.872;25.314;2024-02-14T03:48:17;96721.84;;;1.95;100.00
42771;BME280;28426;42.872;25.314;2024-02-14T03:50:48;96727.38;;;1.92;100.00
42771;BME280;28426;42.872;25.314;2024-02-14T03:53:19;96724.88;;;1.91;100.00
42771;BME280;28426;42.872;25.314;2024-02-14T03:55:50;96732.91;;;1.89;100.00
42771;BME280;28426;42.872;25.314;2024-02-14T03:58:21;96726.28;;;1.85;100.00
42771;BME280;28426;42.872;25.314;2024-02-14T04:00:55;96729.03;;;1.83;100.00
42771;BME280;28426;42.872;25.314;2024-02-14T04:03:26;96742.06;;;1.85;100.00
42771;BME280;28426;42.872;25.314;2024-02-14T04:05:56;96742.75;;;1.87;100.00
42771;BME280;28426;42.872;25.314;2024-02-14T04:08:28;96747.03;;;1.88;100.00
42771;BME280;28426;42.872;25.314;2024-02-14T04:10:59;96750.38;;;1.90;100.00
42771;BME280;28426;42.872;25.314;2024-02-14T04:13:29;96751.06;;;1.92;100.00
42771;BME280;28426;42.872;25.314;2024-02-14T04:16:03;96753.69;;;1.92;100.00
42771;BME280;28426;42.872;25.314;2024-02-14T04:18:49;96759.22;;;1.89;100.00
42771;BME280;28426;42.872;25.314;2024-02-14T04:21:21;96754.94;;;1.88;100.00
42771;BME280;28426;42.872;25.314;2024-02-14T04:23:51;96758.25;;;1.90;100.00
42771;BME280;28426;42.872;25.314;2024-02-14T04:26:22;96759.38;;;1.88;100.00
42771;BME280;28426;42.872;25.314;2024-02-14T04:28:54;96759.38;;;1.88;100.00
42771;BME280;28426;42.872;25.314;2024-02-14T04:31:27;96753.00;;;1.80;100.00
42771;BME280;28426;42.872;25.314;2024-02-14T04:34:08;96772.78;;;1.85;100.00
42771;BME280;28426;42.872;25.314;2024-02-14T04:36:41;96773.78;;;1.83;100.00
42771;BME280;28426;42.872;25.314;2024-02-14T04:39:11;96764.91;;;1.85;100.00
42771;BME280;28426;42.872;25.314;2024-02-14T04:41:42;96771.69;;;1.87;100.00
42771;BME280;28426;42.872;25.314;2024-02-14T04:44:28;96772.53;;;1.88;100.00
42771;BME280;28426;42.872;25.314;2024-02-14T04:47:01;96772.53;;;1.88;100.00
42771;BME280;28426;42.872;25.314;2024-02-14T04:49:32;96783.88;;;1.88;100.00
42771;BME280;28426;42.872;25.314;2024-02-14T04:52:04;96776.13;;;1.96;100.00
42771;BME280;28426;42.872;25.314;2024-02-14T04:54:35;96790.25;;;2.15;100.00
42771;BME280;28426;42.872;25.314;2024-02-14T04:57:06;96793.53;;;2.27;100.00
42771;BME280;28426;42.872;25.314;2024-02-14T04:59:37;96792.69;;;2.37;100.00
42771;BME280;28426;42.872;25.314;2024-02-14T05:02:10;96796.97;;;2.47;100.00
42771;BME280;28426;42.872;25.314;2024-02-14T05:04:41;96800.44;;;2.58;100.00
42771;BME280;28426;42.872;25.314;2024-02-14T05:07:11;96806.66;;;2.67;100.00
42771;BME280;28426;42.872;25.314;2024-02-14T05:09:43;96808.44;;;2.76;100.00
42771;BME280;28426;42.872;25.314;2024-02-14T05:12:17;96812.03;;;2.85;100.00
42771;BME280;28426;42.872;25.314;2024-02-14T05:14:48;96819.22;;;2.93;100.00
42771;BME280;28426;42.872;25.314;2024-02-14T05:17:21;96822.78;;;3.01;100.00
42771;BME280;28426;42.872;25.314;2024-02-14T05:19:52;96823.03;;;3.08;100.00
42771;BME280;28426;42.872;25.314;2024-02-14T05:22:24;96831.19;;;3.15;100.00
42771;BME280;28426;42.872;25.314;2024-02-14T05:24:55;96831.91;;;3.17;100.00
42771;BME280;28426;42.872;25.314;2024-02-14T05:27:25;96836.84;;;3.20;100.00
42771;BME280;28426;42.872;25.314;2024-02-14T05:29:56;96847.41;;;3.20;100.00
42771;BME280;28426;42.872;25.314;2024-02-14T05:32:34;96846.31;;;3.23;100.00
42771;BME280;28426;42.872;25.314;2024-02-14T05:35:05;96847.97;;;3.24;100.00
42771;BME280;28426;42.872;25.314;2024-02-14T05:37:37;96861.81;;;3.26;100.00
42771;BME280;28426;42.872;25.314;2024-02-14T05:40:08;96852.94;;;3.27;100.00
42771;BME280;28426;42.872;25.314;2024-02-14T05:42:39;96862.38;;;3.30;100.00
42771;BME280;28426;42.872;25.314;2024-02-14T05:45:14;96862.78;;;3.35;100.00
42771;BME280;28426;42.872;25.314;2024-02-14T05:47:47;96866.78;;;3.39;100.00
42771;BME280;28426;42.872;25.314;2024-02-14T05:50:18;96870.09;;;3.41;100.00
42771;BME280;28426;42.872;25.314;2024-02-14T05:52:48;96869.97;;;3.43;100.00
42771;BME280;28426;42.872;25.314;2024-02-14T05:55:19;96883.69;;;3.46;100.00
42771;BME280;28426;42.872;25.314;2024-02-14T05:57:56;96881.75;;;3.48;100.00
42771;BME280;28426;42.872;25.314;2024-02-14T06:00:28;96888.28;;;3.44;100.00
42771;BME280;28426;42.872;25.314;2024-02-14T06:03:02;96889.53;;;3.40;100.00
42771;BME280;28426;42.872;25.314;2024-02-14T06:05:36;96897.63;;;3.29;100.00
42771;BME280;28426;42.872;25.314;2024-02-14T06:08:06;96900.88;;;3.12;100.00
42771;BME280;28426;42.872;25.314;2024-02-14T06:10:37;96904.38;;;2.93;100.00
42771;BME280;28426;42.872;25.314;2024-02-14T06:13:08;96907.44;;;2.79;100.00
42771;BME280;28426;42.872;25.314;2024-02-14T06:15:39;96918.13;;;2.77;100.00
42771;BME280;28426;42.872;25.314;2024-02-14T06:18:13;96917.44;;;2.85;100.00
42771;BME280;28426;42.872;25.314;2024-02-14T06:20:43;96923.41;;;2.87;100.00
42771;BME280;28426;42.872;25.314;2024-02-14T06:23:14;96921.88;;;2.94;100.00
42771;BME280;28426;42.872;25.314;2024-02-14T06:25:45;96929.19;;;3.00;100.00
42771;BME280;28426;42.872;25.314;2024-02-14T06:28:15;96932.94;;;3.08;100.00
42771;BME280;28426;42.872;25.314;2024-02-14T06:30:46;96931.13;;;3.08;100.00
42771;BME280;28426;42.872;25.314;2024-02-14T06:33:19;96934.47;;;3.00;100.00
42771;BME280;28426;42.872;25.314;2024-02-14T06:35:50;96945.19;;;2.89;100.00
42771;BME280;28426;42.872;25.314;2024-02-14T06:38:21;96951.41;;;2.88;100.00
42771;BME280;28426;42.872;25.314;2024-02-14T06:40:52;96951.81;;;2.93;100.00
42771;BME280;28426;42.872;25.314;2024-02-14T06:43:23;96946.84;;;2.90;100.00
42771;BME280;28426;42.872;25.314;2024-02-14T06:45:53;96951.97;;;2.82;100.00
42771;BME280;28426;42.872;25.314;2024-02-14T06:48:36;96950.59;;;2.68;100.00
42771;BME280;28426;42.872;25.314;2024-02-14T06:51:08;96959.47;;;2.67;100.00
42771;BME280;28426;42.872;25.314;2024-02-14T06:53:38;96956.97;;;2.75;100.00
42771;BME280;28426;42.872;25.314;2024-02-14T06:56:09;96968.63;;;2.82;100.00
42771;BME280;28426;42.872;25.314;2024-02-14T06:58:40;96967.94;;;2.90;100.00
42771;BME280;28426;42.872;25.314;2024-02-14T07:01:10;96976.50;;;2.92;100.00
42771;BME280;28426;42.872;25.314;2024-02-14T07:03:45;96980.41;;;2.88;100.00
42771;BME280;28426;42.872;25.314;2024-02-14T07:06:16;96986.63;;;2.77;100.00
42771;BME280;28426;42.872;25.314;2024-02-14T07:08:48;96989.81;;;2.61;100.00
42771;BME280;28426;42.872;25.314;2024-02-14T07:11:18;96997.88;;;2.69;100.00
42771;BME280;28426;42.872;25.314;2024-02-14T07:13:49;97001.78;;;2.75;100.00
42771;BME280;28426;42.872;25.314;2024-02-14T07:16:20;97004.41;;;2.85;100.00
42771;BME280;28426;42.872;25.314;2024-02-14T07:18:53;97006.47;;;2.91;100.00
42771;BME280;28426;42.872;25.314;2024-02-14T07:21:24;97013.72;;;2.89;100.00
42771;BME280;28426;42.872;25.314;2024-02-14T07:23:54;97009.94;;;2.82;100.00
42771;BME280;28426;42.872;25.314;2024-02-14T07:26:25;97025.06;;;2.70;100.00
42771;BME280;28426;42.872;25.314;2024-02-14T07:28:56;97018.97;;;2.59;100.00
42771;BME280;28426;42.872;25.314;2024-02-14T07:31:28;97019.81;;;2.70;100.00
42771;BME280;28426;42.872;25.314;2024-02-14T07:34:04;97016.72;;;2.74;100.00
42771;BME280;28426;42.872;25.314;2024-02-14T07:36:36;97025.88;;;2.70;100.00
42771;BME280;28426;42.872;25.314;2024-02-14T07:39:08;97020.88;;;2.57;100.00
42771;BME280;28426;42.872;25.314;2024-02-14T07:41:39;97028.09;;;2.65;100.00
42771;BME280;28426;42.872;25.314;2024-02-14T07:44:10;97033.38;;;2.75;100.00
42771;BME280;28426;42.872;25.314;2024-02-14T07:46:41;97028.81;;;2.87;100.00
42771;BME280;28426;42.872;25.314;2024-02-14T07:49:14;97032.28;;;2.97;100.00
42771;BME280;28426;42.872;25.314;2024-02-14T07:51:45;97021.72;;;2.97;100.00
42771;BME280;28426;42.872;25.314;2024-02-14T07:54:15;97027.84;;;2.88;100.00
42771;BME280;28426;42.872;25.314;2024-02-14T07:56:46;97020.09;;;2.77;99.21
42771;BME280;28426;42.872;25.314;2024-02-14T07:59:17;97027.41;;;2.63;99.42
42771;BME280;28426;42.872;25.314;2024-02-14T08:01:48;97032.25;;;2.68;100.00
42771;BME280;28426;42.872;25.314;2024-02-14T08:04:21;97028.66;;;2.79;100.00
42771;BME280;28426;42.872;25.314;2024-02-14T08:06:52;97038.38;;;2.88;100.00
42771;BME280;28426;42.872;25.314;2024-02-14T08:09:23;97042.97;;;2.96;100.00
42771;BME280;28426;42.872;25.314;2024-02-14T08:11:53;97038.41;;;2.98;100.00
42771;BME280;28426;42.872;25.314;2024-02-14T08:14:24;97051.28;;;2.91;100.00
42771;BME280;28426;42.872;25.314;2024-02-14T08:16:55;97054.88;;;2.80;99.55
42771;BME280;28426;42.872;25.314;2024-02-14T08:19:28;97052.13;;;2.82;100.00
42771;BME280;28426;42.872;25.314;2024-02-14T08:21:59;97054.31;;;2.86;100.00
42771;BME280;28426;42.872;25.314;2024-02-14T08:24:30;97064.22;;;2.94;100.00
42771;BME280;28426;42.872;25.314;2024-02-14T08:27:01;97060.03;;;3.01;100.00
42771;BME280;28426;42.872;25.314;2024-02-14T08:29:34;97068.63;;;3.13;100.00
42771;BME280;28426;42.872;25.314;2024-02-14T08:32:05;97068.78;;;3.22;100.00
42771;BME280;28426;42.872;25.314;2024-02-14T08:34:38;97073.06;;;3.33;100.00
42771;BME280;28426;42.872;25.314;2024-02-14T08:37:09;97071.56;;;3.40;100.00
42771;BME280;28426;42.872;25.314;2024-02-14T08:39:40;97076.97;;;3.48;100.00
42771;BME280;28426;42.872;25.314;2024-02-14T08:42:11;97077.09;;;3.57;100.00
42771;BME280;28426;42.872;25.314;2024-02-14T08:44:42;97079.16;;;3.63;100.00
42771;BME280;28426;42.872;25.314;2024-02-14T08:47:12;97088.88;;;3.72;100.00
42771;BME280;28426;42.872;25.314;2024-02-14T08:49:46;97083.00;;;3.78;100.00
42771;BME280;28426;42.872;25.314;2024-02-14T08:52:16;97085.91;;;3.85;100.00
42771;BME280;28426;42.872;25.314;2024-02-14T08:54:47;97091.44;;;3.92;100.00
42771;BME280;28426;42.872;25.314;2024-02-14T08:57:19;97086.59;;;3.97;100.00
42771;BME280;28426;42.872;25.314;2024-02-14T08:59:51;97091.28;;;4.03;100.00
42771;BME280;28426;42.872;25.314;2024-02-14T09:02:23;97088.75;;;4.12;100.00
42771;BME280;28426;42.872;25.314;2024-02-14T09:04:56;97094.28;;;4.18;100.00
42771;BME280;28426;42.872;25.314;2024-02-14T09:07:27;97099.97;;;4.24;100.00
42771;BME280;28426;42.872;25.314;2024-02-14T09:09:59;97098.56;;;4.29;99.70
42771;BME280;28426;42.872;25.314;2024-02-14T09:12:31;97098.25;;;4.32;99.62
42771;BME280;28426;42.872;25.314;2024-02-14T09:15:02;97102.41;;;4.35;98.53
42771;BME280;28426;42.872;25.314;2024-02-14T09:17:33;97104.25;;;4.35;98.35
42771;BME280;28426;42.872;25.314;2024-02-14T09:20:08;97102.59;;;4.34;97.10
42771;BME280;28426;42.872;25.314;2024-02-14T09:22:42;97103.72;;;4.31;96.49
42771;BME280;28426;42.872;25.314;2024-02-14T09:25:13;97108.28;;;4.29;96.64
42771;BME280;28426;42.872;25.314;2024-02-14T09:27:44;97111.78;;;4.29;96.50
42771;BME280;28426;42.872;25.314;2024-02-14T09:30:15;97101.22;;;4.29;96.58
42771;BME280;28426;42.872;25.314;2024-02-14T09:32:58;97109.81;;;4.31;96.59
42771;BME280;28426;42.872;25.314;2024-02-14T09:35:32;97108.69;;;4.34;96.29
42771;BME280;28426;42.872;25.314;2024-02-14T09:38:03;97111.03;;;4.37;96.16
42771;BME280;28426;42.872;25.314;2024-02-14T09:40:34;97113.81;;;4.36;94.89
42771;BME280;28426;42.872;25.314;2024-02-14T09:43:10;97119.13;;;4.36;94.80
42771;BME280;28426;42.872;25.314;2024-02-14T09:45:44;97115.47;;;4.37;94.72
42771;BME280;28426;42.872;25.314;2024-02-14T09:48:16;97114.66;;;4.36;94.90
42771;BME280;28426;42.872;25.314;2024-02-14T09:50:52;97112.97;;;4.35;94.75
42771;BME280;28426;42.872;25.314;2024-02-14T09:53:24;97115.78;;;4.34;94.35
42771;BME280;28426;42.872;25.314;2024-02-14T09:55:56;97107.88;;;4.34;94.06
42771;BME280;28426;42.872;25.314;2024-02-14T09:58:28;97107.03;;;4.33;94.23
42771;BME280;28426;42.872;25.314;2024-02-14T10:00:58;97102.16;;;4.28;93.82
42771;BME280;28426;42.872;25.314;2024-02-14T10:03:29;97106.34;;;4.31;93.99
42771;BME280;28426;42.872;25.314;2024-02-14T10:06:03;97111.47;;;4.32;93.93
42771;BME280;28426;42.872;25.314;2024-02-14T10:08:34;97106.50;;;4.29;93.12
42771;BME280;28426;42.872;25.314;2024-02-14T10:11:21;97113.72;;;4.27;93.35
42771;BME280;28426;42.872;25.314;2024-02-14T10:13:54;97106.78;;;4.26;92.93
42771;BME280;28426;42.872;25.314;2024-02-14T10:16:32;97100.66;;;4.26;93.02
42771;BME280;28426;42.872;25.314;2024-02-14T10:19:02;97097.19;;;4.25;93.06
42771;BME280;28426;42.872;25.314;2024-02-14T10:21:38;97105.78;;;4.27;93.16
42771;BME280;28426;42.872;25.314;2024-02-14T10:24:11;97095.94;;;4.29;93.41
42771;BME280;28426;42.872;25.314;2024-02-14T10:26:42;97094.94;;;4.30;93.58
42771;BME280;28426;42.872;25.314;2024-02-14T10:29:13;97092.72;;;4.26;92.88
42771;BME280;28426;42.872;25.314;2024-02-14T10:31:45;97090.66;;;4.29;92.88
42771;BME280;28426;42.872;25.314;2024-02-14T10:34:16;97098.44;;;4.31;92.53
42771;BME280;28426;42.872;25.314;2024-02-14T10:36:52;97089.81;;;4.29;92.34
42771;BME280;28426;42.872;25.314;2024-02-14T10:39:25;97097.72;;;4.29;92.60
42771;BME280;28426;42.872;25.314;2024-02-14T10:41:56;97088.00;;;4.29;92.82
42771;BME280;28426;42.872;25.314;2024-02-14T10:44:28;97089.38;;;4.34;93.15
42771;BME280;28426;42.872;25.314;2024-02-14T10:47:02;97091.69;;;4.37;92.87
42771;BME280;28426;42.872;25.314;2024-02-14T10:49:37;97088.09;;;4.38;92.40
42771;BME280;28426;42.872;25.314;2024-02-14T10:52:11;97089.75;;;4.39;92.31
42771;BME280;28426;42.872;25.314;2024-02-14T10:54:43;97084.47;;;4.39;91.90
42771;BME280;28426;42.872;25.314;2024-02-14T10:57:17;97082.50;;;4.41;92.45
42771;BME280;28426;42.872;25.314;2024-02-14T10:59:50;97075.44;;;4.41;92.36
42771;BME280;28426;42.872;25.314;2024-02-14T11:02:22;97078.75;;;4.43;92.62
42771;BME280;28426;42.872;25.314;2024-02-14T11:04:54;97081.09;;;4.47;92.74
42771;BME280;28426;42.872;25.314;2024-02-14T11:07:28;97079.97;;;4.49;92.56
42771;BME280;28426;42.872;25.314;2024-02-14T11:10:05;97078.03;;;4.51;92.09
42771;BME280;28426;42.872;25.314;2024-02-14T11:12:37;97079.84;;;4.51;92.17
42771;BME280;28426;42.872;25.314;2024-02-14T11:15:12;97079.97;;;4.49;91.61
42771;BME280;28426;42.872;25.314;2024-02-14T11:17:43;97082.75;;;4.48;91.50
42771;BME280;28426;42.872;25.314;2024-02-14T11:20:16;97082.75;;;4.48;91.51
42771;BME280;28426;42.872;25.314;2024-02-14T11:22:58;97088.88;;;4.48;92.09
42771;BME280;28426;42.872;25.314;2024-02-14T11:25:33;97086.91;;;4.50;91.93
42771;BME280;28426;42.872;25.314;2024-02-14T11:28:13;97096.53;;;4.51;91.36
42771;BME280;28426;42.872;25.314;2024-02-14T11:30:44;97092.91;;;4.52;91.72
42771;BME280;28426;42.872;25.314;2024-02-14T11:33:17;97095.22;;;4.55;91.39
42771;BME280;28426;42.872;25.314;2024-02-14T11:35:49;97098.72;;;4.56;91.48
42771;BME280;28426;42.872;25.314;2024-02-14T11:38:25;97101.88;;;4.60;91.52
42771;BME280;28426;42.872;25.314;2024-02-14T11:40:57;97098.97;;;4.63;91.36
42771;BME280;28426;42.872;25.314;2024-02-14T11:43:28;97099.81;;;4.63;90.87
42771;BME280;28426;42.872;25.314;2024-02-14T11:45:59;97102.44;;;4.63;90.28
42771;BME280;28426;42.872;25.314;2024-02-14T11:48:32;97106.88;;;4.63;90.40
42771;BME280;28426;42.872;25.314;2024-02-14T11:51:07;97107.88;;;4.62;90.12
42771;BME280;28426;42.872;25.314;2024-02-14T11:53:41;97098.44;;;4.59;89.86
42771;BME280;28426;42.872;25.314;2024-02-14T11:56:12;97095.78;;;4.59;90.05
42771;BME280;28426;42.872;25.314;2024-02-14T11:58:44;97102.59;;;4.62;90.20
42771;BME280;28426;42.872;25.314;2024-02-14T12:01:18;97104.25;;;4.63;90.54
42771;BME280;28426;42.872;25.314;2024-02-14T12:03:48;97107.72;;;4.63;90.65
42771;BME280;28426;42.872;25.314;2024-02-14T12:06:22;97101.31;;;4.66;90.39
42771;BME280;28426;42.872;25.314;2024-02-14T12:08:57;97100.03;;;4.70;90.60
42771;BME280;28426;42.872;25.314;2024-02-14T12:11:29;97093.31;;;4.76;90.98
42771;BME280;28426;42.872;25.314;2024-02-14T12:14:01;97092.59;;;4.83;91.00
42771;BME280;28426;42.872;25.314;2024-02-14T12:16:33;97097.28;;;4.90;90.44
42771;BME280;28426;42.872;25.314;2024-02-14T12:19:06;97095.00;;;4.95;90.31
42771;BME280;28426;42.872;25.314;2024-02-14T12:21:39;97096.09;;;5.02;89.65
42771;BME280;28426;42.872;25.314;2024-02-14T12:24:14;97085.88;;;5.07;89.74
42771;BME280;28426;42.872;25.314;2024-02-14T12:26:45;97091.41;;;5.14;89.75
42771;BME280;28426;42.872;25.314;2024-02-14T12:29:16;97087.31;;;5.20;89.67
42771;BME280;28426;42.872;25.314;2024-02-14T12:31:47;97093.97;;;5.24;89.40
42771;BME280;28426;42.872;25.314;2024-02-14T12:34:17;97097.16;;;5.28;88.83
42771;BME280;28426;42.872;25.314;2024-02-14T12:36:52;97103.09;;;5.30;88.17
42771;BME280;28426;42.872;25.314;2024-02-14T12:39:26;97105.09;;;5.28;87.10
42771;BME280;28426;42.872;25.314;2024-02-14T12:41:56;97095.63;;;5.25;87.63
42771;BME280;28426;42.872;25.314;2024-02-14T12:44:30;97091.47;;;5.22;87.45
42771;BME280;28426;42.872;25.314;2024-02-14T12:47:01;97094.41;;;5.19;86.80
42771;BME280;28426;42.872;25.314;2024-02-14T12:49:31;97094.03;;;5.14;86.61
42771;BME280;28426;42.872;25.314;2024-02-14T12:52:03;97087.38;;;5.10;87.13
42771;BME280;28426;42.872;25.314;2024-02-14T12:54:37;97090.19;;;5.08;87.69
42771;BME280;28426;42.872;25.314;2024-02-14T12:57:07;97099.78;;;5.09;87.84
42771;BME280;28426;42.872;25.314;2024-02-14T12:59:40;97087.53;;;5.08;87.28
42771;BME280;28426;42.872;25.314;2024-02-14T13:02:11;97096.59;;;5.06;87.71
42771;BME280;28426;42.872;25.314;2024-02-14T13:04:42;97099.41;;;5.04;87.83
42771;BME280;28426;42.872;25.314;2024-02-14T13:07:12;97102.03;;;5.04;87.74
42771;BME280;28426;42.872;25.314;2024-02-14T13:09:46;97109.16;;;5.04;87.46
42771;BME280;28426;42.872;25.314;2024-02-14T13:12:16;97107.47;;;5.03;87.75
42771;BME280;28426;42.872;25.314;2024-02-14T13:14:48;97107.34;;;5.04;87.91
42771;BME280;28426;42.872;25.314;2024-02-14T13:17:19;97108.31;;;5.03;87.81
42771;BME280;28426;42.872;25.314;2024-02-14T13:19:50;97109.97;;;5.04;87.80
42771;BME280;28426;42.872;25.314;2024-02-14T13:22:21;97115.13;;;5.06;88.15
42771;BME280;28426;42.872;25.314;2024-02-14T13:24:55;97122.91;;;5.07;87.82